Time;durP1;ratioP1;P1;durP2;ratioP2;P2;SDS_P1;SDS_P2;PMS_P1;PMS_P2;Temp;Humidity;BMP_temperature;BMP_pressure;BME280_temperature;BME280_humidity;BME280_pressure;Samples;Min_cycle;Max_cycle;Signal;HPM_P1;HPM_P2
2023/01/06 00:00:21;;;;;;;15.95;5.50;;;;;;;;;;4998833;28;20026;-74
2023/01/06 00:02:47;;;;;;;18.42;5.43;;;;;;;;;;4991334;28;20049;-74
2023/01/06 00:05:13;;;;;;;16.13;5.20;;;;;;;;;;5004974;28;20030;-74
2023/01/06 00:07:40;;;;;;;20.90;5.55;;;;;;;;;;4995472;28;20061;-74
2023/01/06 00:10:07;;;;;;;20.80;5.32;;;;;;;;;;4992306;28;20078;-74
2023/01/06 00:12:33;;;;;;;16.25;4.60;;;;;;;;;;4994673;28;20069;-74
2023/01/06 00:14:59;;;;;;;14.13;4.90;;;;;;;;;;4993008;28;20387;-74
2023/01/06 00:17:26;;;;;;;18.67;4.30;;;;;;;;;;4983354;28;20179;-75
2023/01/06 00:19:52;;;;;;;13.77;4.28;;;;;;;;;;5000204;28;20183;-75
2023/01/06 00:22:18;;;;;;;14.43;4.00;;;;;;;;;;4993312;28;20034;-74
2023/01/06 00:24:44;;;;;;;12.65;4.00;;;;;;;;;;4991151;28;20049;-75
2023/01/06 00:27:10;;;;;;;15.30;4.88;;;;;;;;;;4998094;28;20053;-74
2023/01/06 00:29:36;;;;;;;10.43;4.10;;;;;;;;;;4989576;28;20030;-75
2023/01/06 00:32:03;;;;;;;11.75;4.38;;;;;;;;;;4999347;28;20114;-75
2023/01/06 00:34:29;;;;;;;17.63;4.80;;;;;;;;;;4990218;28;20049;-75
2023/01/06 00:36:55;;;;;;;10.80;5.35;;;;;;;;;;5007316;28;20049;-72
2023/01/06 00:39:22;;;;;;;15.27;6.43;;;;;;;;;;4986610;28;20033;-75
2023/01/06 00:42:03;;;;;;;14.80;6.45;;;;;;;;;;5005751;28;20030;-75
2023/01/06 00:44:33;;;;;;;12.48;6.97;;;;;;;;;;4998088;28;20042;-76
2023/01/06 00:47:00;;;;;;;15.65;7.78;;;;;;;;;;4989875;28;20030;-75
2023/01/06 00:49:26;;;;;;;11.38;7.03;;;;;;;;;;4988161;28;20049;-71
2023/01/06 00:51:52;;;;;;;16.35;7.97;;;;;;;;;;4988419;28;20054;-73
2023/01/06 00:54:18;;;;;;;16.70;8.95;;;;;;;;;;4997001;28;20029;-74
2023/01/06 00:56:49;;;;;;;18.60;8.98;;;;;;;;;;4985583;28;20034;-74
2023/01/06 00:59:16;;;;;;;16.00;7.93;;;;;;;;;;4990891;28;20030;-73
2023/01/06 01:01:43;;;;;;;17.20;8.65;;;;;;;;;;4988653;28;20037;-74
2023/01/06 01:04:10;;;;;;;17.10;7.80;;;;;;;;;;4985371;28;20026;-75
2023/01/06 01:06:36;;;;;;;15.65;7.15;;;;;;;;;;4988493;28;20038;-75
2023/01/06 01:09:03;;;;;;;15.75;7.47;;;;;;;;;;4982927;28;20555;-74
2023/01/06 01:14:17;;;;;;;10.70;5.95;;;;;;;;;;5003588;28;20128;-75
2023/01/06 01:16:43;;;;;;;13.38;6.40;;;;;;;;;;4997785;28;20025;-75
2023/01/06 01:19:09;;;;;;;10.82;5.25;;;;;;;;;;4991252;28;20030;-74
2023/01/06 01:21:35;;;;;;;12.10;5.32;;;;;;;;;;4988444;28;20027;-72
2023/01/06 01:24:02;;;;;;;11.18;5.75;;;;;;;;;;4993561;28;20178;-73
2023/01/06 01:26:28;;;;;;;12.35;4.95;;;;;;;;;;5001270;28;20113;-75
2023/01/06 01:28:56;;;;;;;11.60;5.10;;;;;;;;;;4993346;28;20037;-75
2023/01/06 01:31:23;;;;;;;8.48;4.80;;;;;;;;;;4989842;28;21005;-75
2023/01/06 01:33:49;;;;;;;15.35;5.10;;;;;;;;;;4993302;28;20081;-73
2023/01/06 01:36:16;;;;;;;10.85;5.65;;;;;;;;;;4992603;28;20033;-74
2023/01/06 01:38:42;;;;;;;15.18;5.95;;;;;;;;;;4993058;28;20049;-73
2023/01/06 01:41:19;;;;;;;11.50;5.50;;;;;;;;;;5001081;28;20023;-74
2023/01/06 01:43:52;;;;;;;17.45;6.32;;;;;;;;;;4996139;28;20061;-74
2023/01/06 01:46:25;;;;;;;10.25;5.80;;;;;;;;;;4986720;28;20288;-75
2023/01/06 01:48:52;;;;;;;16.10;7.00;;;;;;;;;;4995035;28;20026;-72
2023/01/06 01:51:23;;;;;;;16.33;6.20;;;;;;;;;;4991976;28;20034;-74
2023/01/06 01:53:51;;;;;;;13.07;5.85;;;;;;;;;;4988618;28;20034;-74
2023/01/06 01:56:20;;;;;;;10.45;5.68;;;;;;;;;;5007557;28;20042;-74
2023/01/06 01:58:55;;;;;;;12.52;5.85;;;;;;;;;;4969594;28;20023;-74
2023/01/06 02:01:21;;;;;;;10.00;5.57;;;;;;;;;;5000005;28;20265;-74
2023/01/06 02:03:47;;;;;;;11.25;5.05;;;;;;;;;;4985426;28;20042;-73
2023/01/06 02:06:16;;;;;;;10.30;4.93;;;;;;;;;;4993260;28;20050;-74
2023/01/06 02:08:47;;;;;;;11.73;4.47;;;;;;;;;;4989043;28;20064;-75
2023/01/06 02:11:13;;;;;;;9.57;4.47;;;;;;;;;;5000397;28;20038;-72
2023/01/06 02:13:40;;;;;;;13.18;5.18;;;;;;;;;;4985526;28;20030;-74
2023/01/06 02:16:14;;;;;;;8.40;4.55;;;;;;;;;;4977991;28;20027;-73
2023/01/06 02:18:54;;;;;;;11.30;4.43;;;;;;;;;;4994690;28;20026;-72
2023/01/06 02:21:27;;;;;;;11.02;4.72;;;;;;;;;;4989652;28;20036;-72
2023/01/06 02:24:00;;;;;;;8.68;4.03;;;;;;;;;;4998460;28;20034;-74
2023/01/06 02:26:41;;;;;;;11.38;3.97;;;;;;;;;;5002916;28;20030;-74
2023/01/06 02:29:27;;;;;;;9.77;3.90;;;;;;;;;;4987880;28;20035;-74
2023/01/06 02:32:16;;;;;;;11.23;4.53;;;;;;;;;;4990621;28;20034;-73
2023/01/06 02:34:48;;;;;;;9.57;4.50;;;;;;;;;;4991198;28;20046;-73
2023/01/06 02:37:32;;;;;;;10.50;4.50;;;;;;;;;;4986837;28;20022;-74
2023/01/06 02:40:05;;;;;;;13.88;4.57;;;;;;;;;;5000550;28;20111;-74
2023/01/06 02:42:35;;;;;;;10.63;4.30;;;;;;;;;;4991855;28;20030;-74
2023/01/06 02:45:05;;;;;;;13.35;5.47;;;;;;;;;;4998150;28;20041;-74
2023/01/06 02:47:39;;;;;;;6.55;3.60;;;;;;;;;;4993883;28;20022;-74
2023/01/06 02:50:11;;;;;;;9.88;3.60;;;;;;;;;;4993292;28;20027;-73
2023/01/06 02:52:37;;;;;;;9.07;3.63;;;;;;;;;;5000558;28;20034;-74
2023/01/06 02:55:04;;;;;;;10.32;4.35;;;;;;;;;;4996539;28;20145;-73
2023/01/06 02:57:42;;;;;;;7.32;3.47;;;;;;;;;;4985483;28;20037;-73
2023/01/06 03:00:14;;;;;;;6.70;3.25;;;;;;;;;;4991310;28;20038;-74
2023/01/06 03:02:42;;;;;;;11.23;3.95;;;;;;;;;;4989260;28;20026;-74
2023/01/06 03:05:09;;;;;;;11.93;4.25;;;;;;;;;;4972861;28;20030;-74
2023/01/06 03:07:37;;;;;;;10.10;3.42;;;;;;;;;;4984415;28;20038;-74
2023/01/06 03:10:04;;;;;;;5.95;3.10;;;;;;;;;;4998057;28;20034;-72
2023/01/06 03:12:34;;;;;;;5.22;2.70;;;;;;;;;;5003342;28;20062;-73
2023/01/06 03:15:02;;;;;;;7.60;3.15;;;;;;;;;;4989057;28;20495;-74
2023/01/06 03:17:29;;;;;;;8.77;3.40;;;;;;;;;;4995962;28;20057;-74
2023/01/06 03:19:56;;;;;;;10.23;3.08;;;;;;;;;;4986793;28;20044;-74
2023/01/06 03:22:22;;;;;;;11.25;3.10;;;;;;;;;;4974673;28;20121;-74
2023/01/06 03:24:49;;;;;;;9.07;2.90;;;;;;;;;;4985519;28;20037;-73
2023/01/06 03:27:19;;;;;;;5.28;2.58;;;;;;;;;;4991823;28;20026;-73
2023/01/06 03:29:45;;;;;;;7.45;3.38;;;;;;;;;;4997596;28;20108;-74
2023/01/06 03:32:18;;;;;;;7.25;2.55;;;;;;;;;;4990438;28;20080;-74
2023/01/06 03:35:03;;;;;;;6.38;2.60;;;;;;;;;;4993357;28;20031;-74
2023/01/06 03:37:48;;;;;;;11.25;2.72;;;;;;;;;;4993604;28;20072;-73
2023/01/06 03:40:50;;;;;;;7.03;2.92;;;;;;;;;;5000285;28;20030;-74
2023/01/06 03:43:29;;;;;;;8.77;3.55;;;;;;;;;;4966527;28;20035;-75
2023/01/06 03:46:16;;;;;;;9.93;3.03;;;;;;;;;;4988498;28;20043;-73
2023/01/06 03:49:02;;;;;;;10.63;2.83;;;;;;;;;;4976040;28;20112;-72
2023/01/06 03:51:28;;;;;;;7.72;2.83;;;;;;;;;;5002852;28;20045;-73
2023/01/06 03:54:05;;;;;;;7.32;2.38;;;;;;;;;;4970291;28;20492;-73
2023/01/06 03:56:33;;;;;;;7.40;2.72;;;;;;;;;;4973248;28;20066;-76
2023/01/06 03:59:06;;;;;;;9.30;2.90;;;;;;;;;;4985546;28;20097;-72
2023/01/06 04:01:32;;;;;;;;;;;;;;;;;;4990717;28;20476;-73
2023/01/06 04:04:01;;;;;;;7.20;2.70;;;;;;;;;;5004550;28;19909;-73
2023/01/06 04:06:28;;;;;;;9.68;2.80;;;;;;;;;;4986678;28;20053;-73
2023/01/06 04:08:55;;;;;;;10.55;3.53;;;;;;;;;;4995878;28;20034;-73
2023/01/06 04:14:07;;;;;;;6.75;2.58;;;;;;;;;;4978345;28;20064;-73
2023/01/06 04:16:34;;;;;;;6.80;3.00;;;;;;;;;;4973521;28;20022;-72
2023/01/06 04:19:00;;;;;;;12.27;2.88;;;;;;;;;;4979141;28;20033;-74
2023/01/06 04:21:26;;;;;;;7.05;2.80;;;;;;;;;;4993107;28;20030;-73
2023/01/06 04:23:52;;;;;;;9.80;3.00;;;;;;;;;;4994434;28;20395;-74
2023/01/06 04:26:19;;;;;;;5.05;2.15;;;;;;;;;;4994803;28;20049;-73
2023/01/06 04:28:49;;;;;;;8.00;2.83;;;;;;;;;;4995989;28;20085;-73
2023/01/06 04:31:15;;;;;;;8.52;2.38;;;;;;;;;;5005512;28;20431;-73
2023/01/06 04:33:41;;;;;;;7.65;3.38;;;;;;;;;;4988899;28;20399;-73
2023/01/06 04:36:09;;;;;;;8.40;2.67;;;;;;;;;;4990121;28;20435;-74
2023/01/06 04:38:38;;;;;;;7.88;2.45;;;;;;;;;;4970993;28;20480;-74
2023/01/06 04:41:04;;;;;;;5.93;2.60;;;;;;;;;;4989343;28;20026;-74
2023/01/06 04:43:30;;;;;;;6.20;2.55;;;;;;;;;;4988860;28;20072;-74
2023/01/06 04:45:58;;;;;;;6.43;2.65;;;;;;;;;;4970576;28;20047;-74
2023/01/06 04:48:24;;;;;;;6.03;2.95;;;;;;;;;;4984760;28;20135;-75
2023/01/06 04:50:58;;;;;;;8.07;2.90;;;;;;;;;;4997813;28;20150;-74
2023/01/06 04:53:25;;;;;;;8.45;2.75;;;;;;;;;;4988236;28;20045;-75
2023/01/06 04:55:51;;;;;;;7.97;3.00;;;;;;;;;;4997973;28;20062;-73
2023/01/06 04:58:17;;;;;;;5.97;2.60;;;;;;;;;;4991314;28;20034;-76
2023/01/06 05:00:43;;;;;;;6.78;3.00;;;;;;;;;;4991159;28;20035;-74
2023/01/06 05:03:09;;;;;;;6.40;2.80;;;;;;;;;;4994305;28;20034;-73
2023/01/06 05:05:35;;;;;;;6.88;2.90;;;;;;;;;;5005956;28;20045;-74
2023/01/06 05:08:02;;;;;;;6.38;2.35;;;;;;;;;;4987809;28;20041;-75
2023/01/06 05:10:28;;;;;;;8.05;3.13;;;;;;;;;;4980443;28;20038;-75
2023/01/06 05:12:54;;;;;;;9.55;3.30;;;;;;;;;;4993771;28;20034;-74
2023/01/06 05:15:20;;;;;;;5.95;2.75;;;;;;;;;;5005270;28;20387;-74
2023/01/06 05:17:47;;;;;;;5.60;2.65;;;;;;;;;;4995249;28;20106;-74
2023/01/06 05:20:13;;;;;;;6.43;2.60;;;;;;;;;;4989557;28;20038;-74
2023/01/06 05:22:39;;;;;;;5.45;2.90;;;;;;;;;;4995479;28;20029;-74
2023/01/06 05:25:05;;;;;;;6.65;3.10;;;;;;;;;;4988065;28;20047;-75
2023/01/06 05:27:31;;;;;;;9.02;3.17;;;;;;;;;;4999715;28;20033;-75
2023/01/06 05:29:58;;;;;;;6.10;3.53;;;;;;;;;;4986651;28;20041;-76
2023/01/06 05:32:24;;;;;;;8.23;4.05;;;;;;;;;;4989320;28;20345;-75
2023/01/06 05:34:50;;;;;;;6.57;3.20;;;;;;;;;;4972338;28;20348;-76
2023/01/06 05:37:16;;;;;;;6.28;2.80;;;;;;;;;;4988821;28;20031;-75
2023/01/06 05:39:42;;;;;;;9.93;3.92;;;;;;;;;;4991476;28;20035;-76
2023/01/06 05:42:08;;;;;;;6.03;2.90;;;;;;;;;;4997404;28;20038;-76
2023/01/06 05:44:35;;;;;;;5.85;2.90;;;;;;;;;;5002008;28;20086;-77
2023/01/06 05:47:01;;;;;;;5.40;2.80;;;;;;;;;;4993106;28;20373;-76
2023/01/06 05:49:27;;;;;;;7.85;3.75;;;;;;;;;;4991821;28;20068;-76
2023/01/06 05:51:53;;;;;;;8.10;3.90;;;;;;;;;;4993551;28;20026;-76
2023/01/06 05:54:19;;;;;;;7.18;3.95;;;;;;;;;;4986345;28;20061;-76
2023/01/06 05:56:45;;;;;;;10.35;3.92;;;;;;;;;;4969970;28;20050;-76
2023/01/06 05:59:12;;;;;;;5.45;4.00;;;;;;;;;;4987417;28;20045;-76
2023/01/06 06:01:38;;;;;;;6.00;3.83;;;;;;;;;;4989483;28;20101;-76
2023/01/06 06:04:04;;;;;;;7.20;4.10;;;;;;;;;;4989880;28;20066;-75
2023/01/06 06:06:30;;;;;;;8.85;4.13;;;;;;;;;;4990744;28;20038;-75
2023/01/06 06:08:57;;;;;;;5.72;4.75;;;;;;;;;;4970523;28;20065;-75
2023/01/06 06:11:23;;;;;;;9.45;4.82;;;;;;;;;;4989321;28;20036;-76
2023/01/06 06:13:54;;;;;;;6.55;4.57;;;;;;;;;;4983256;28;20488;-75
2023/01/06 06:16:24;;;;;;;8.35;5.03;;;;;;;;;;4991218;28;20034;-75
2023/01/06 06:18:52;;;;;;;10.35;5.15;;;;;;;;;;4990519;28;20077;-77
2023/01/06 06:21:20;;;;;;;9.15;5.07;;;;;;;;;;4989244;28;20089;-75
2023/01/06 06:23:46;;;;;;;9.23;5.40;;;;;;;;;;4990387;28;20026;-76
2023/01/06 06:26:12;;;;;;;9.05;5.25;;;;;;;;;;4993115;28;20053;-76
2023/01/06 06:28:39;;;;;;;9.02;5.75;;;;;;;;;;4993876;28;20064;-74
2023/01/06 06:31:12;;;;;;;8.88;6.07;;;;;;;;;;4991387;28;20037;-73
2023/01/06 06:33:39;;;;;;;11.45;5.85;;;;;;;;;;4992575;28;20034;-76
2023/01/06 06:36:05;;;;;;;9.32;5.90;;;;;;;;;;4992399;28;20069;-75
2023/01/06 06:38:31;;;;;;;10.35;5.95;;;;;;;;;;4993413;28;20038;-75
2023/01/06 06:40:58;;;;;;;10.00;6.18;;;;;;;;;;4992007;28;20480;-74
2023/01/06 06:43:24;;;;;;;8.52;5.80;;;;;;;;;;4994467;28;20022;-75
2023/01/06 06:45:50;;;;;;;10.05;6.68;;;;;;;;;;4999534;28;20045;-75
2023/01/06 06:48:16;;;;;;;13.05;6.93;;;;;;;;;;4991877;28;20066;-75
2023/01/06 06:50:42;;;;;;;12.02;8.20;;;;;;;;;;4993375;28;20031;-75
2023/01/06 06:53:08;;;;;;;18.25;8.02;;;;;;;;;;4991784;28;20031;-73
2023/01/06 06:55:35;;;;;;;10.13;7.53;;;;;;;;;;4982033;28;20043;-75
2023/01/06 06:58:01;;;;;;;12.93;8.85;;;;;;;;;;4987770;28;20062;-75
2023/01/06 07:00:27;;;;;;;17.38;8.25;;;;;;;;;;4976953;28;20081;-76
2023/01/06 07:02:53;;;;;;;13.40;8.63;;;;;;;;;;4995457;28;20375;-74
2023/01/06 07:05:19;;;;;;;14.23;8.85;;;;;;;;;;4994352;28;20053;-76
2023/01/06 07:07:46;;;;;;;13.85;8.80;;;;;;;;;;4980818;28;20041;-75
2023/01/06 07:10:12;;;;;;;11.85;7.50;;;;;;;;;;4995408;28;20042;-76
2023/01/06 07:12:39;;;;;;;10.50;7.68;;;;;;;;;;4997374;28;20042;-76
2023/01/06 07:15:05;;;;;;;12.07;8.80;;;;;;;;;;4995632;28;20035;-76
2023/01/06 07:17:31;;;;;;;11.13;8.55;;;;;;;;;;4992236;28;20027;-74
2023/01/06 07:19:57;;;;;;;10.82;8.60;;;;;;;;;;4994830;28;20038;-75
2023/01/06 07:22:23;;;;;;;13.38;9.02;;;;;;;;;;4992476;28;20036;-76
2023/01/06 07:24:51;;;;;;;9.60;8.55;;;;;;;;;;4992431;28;20039;-73
2023/01/06 07:27:17;;;;;;;12.85;8.68;;;;;;;;;;4993726;28;20066;-76
2023/01/06 07:29:43;;;;;;;13.23;8.50;;;;;;;;;;4993460;28;20104;-76
2023/01/06 07:32:09;;;;;;;10.32;7.43;;;;;;;;;;4992693;28;20038;-75
2023/01/06 07:34:35;;;;;;;13.45;9.07;;;;;;;;;;4987706;28;20121;-76
2023/01/06 07:37:04;;;;;;;12.02;8.20;;;;;;;;;;4990721;28;20496;-75
2023/01/06 07:39:31;;;;;;;14.35;9.18;;;;;;;;;;4992405;28;20038;-76
2023/01/06 07:41:57;;;;;;;21.63;9.93;;;;;;;;;;4974697;28;20043;-75
2023/01/06 07:44:23;;;;;;;22.50;9.40;;;;;;;;;;4990299;28;20484;-75
2023/01/06 07:46:49;;;;;;;15.80;8.80;;;;;;;;;;4987752;28;20051;-76
2023/01/06 07:49:15;;;;;;;21.23;8.68;;;;;;;;;;4989550;28;20029;-75
2023/01/06 07:51:42;;;;;;;14.18;7.40;;;;;;;;;;4990460;28;20072;-75
2023/01/06 07:54:08;;;;;;;15.57;6.88;;;;;;;;;;4987815;28;20030;-74
2023/01/06 07:56:34;;;;;;;17.45;6.22;;;;;;;;;;4990656;28;20150;-76
2023/01/06 07:59:00;;;;;;;16.40;5.72;;;;;;;;;;4990744;28;20019;-76
2023/01/06 08:01:26;;;;;;;15.07;5.80;;;;;;;;;;4990266;28;20113;-75
2023/01/06 08:03:52;;;;;;;19.95;5.18;;;;;;;;;;4990568;28;20092;-75
2023/01/06 08:06:18;;;;;;;21.48;5.65;;;;;;;;;;4991430;28;20034;-76
2023/01/06 08:08:44;;;;;;;18.23;4.75;;;;;;;;;;4986310;28;20112;-75
2023/01/06 08:11:12;;;;;;;18.73;4.78;;;;;;;;;;5000069;28;20030;-76
2023/01/06 08:13:38;;;;;;;26.63;5.53;;;;;;;;;;4986748;28;20590;-77
2023/01/06 08:16:08;;;;;;;22.88;4.85;;;;;;;;;;4990393;28;20038;-75
2023/01/06 08:18:34;;;;;;;21.38;4.53;;;;;;;;;;4990612;28;20026;-75
2023/01/06 08:21:01;;;;;;;23.48;4.65;;;;;;;;;;4997694;28;20063;-75
2023/01/06 08:23:27;;;;;;;17.38;4.72;;;;;;;;;;4991727;28;20091;-76
2023/01/06 08:26:00;;;;;;;24.45;4.95;;;;;;;;;;4983362;28;20451;-75
2023/01/06 08:28:27;;;;;;;22.50;4.72;;;;;;;;;;4983542;28;20129;-77
2023/01/06 08:30:53;;;;;;;26.80;3.85;;;;;;;;;;4985497;28;20058;-76
2023/01/06 08:33:19;;;;;;;28.10;4.25;;;;;;;;;;4984451;28;20116;-74
2023/01/06 08:35:46;;;;;;;23.27;4.07;;;;;;;;;;4986180;28;20550;-75
2023/01/06 08:38:12;;;;;;;23.52;4.45;;;;;;;;;;4984668;28;20046;-75
2023/01/06 08:40:39;;;;;;;25.95;3.97;;;;;;;;;;4985427;28;20033;-74
2023/01/06 08:43:05;;;;;;;29.15;4.22;;;;;;;;;;4985133;28;20034;-76
2023/01/06 08:45:33;;;;;;;14.70;3.85;;;;;;;;;;4987983;28;20026;-76
2023/01/06 08:48:00;;;;;;;25.63;4.28;;;;;;;;;;4989156;28;20030;-74
2023/01/06 08:50:26;;;;;;;29.42;4.60;;;;;;;;;;4987397;28;20026;-75
2023/01/06 08:52:52;;;;;;;24.25;4.82;;;;;;;;;;4984233;28;20117;-76
2023/01/06 08:55:18;;;;;;;34.70;4.90;;;;;;;;;;4999213;28;20026;-75
2023/01/06 08:57:44;;;;;;;17.58;3.75;;;;;;;;;;4991589;28;20030;-75
2023/01/06 09:00:11;;;;;;;24.98;4.38;;;;;;;;;;4992895;28;20030;-75
2023/01/06 09:02:37;;;;;;;32.13;5.65;;;;;;;;;;4993278;28;20030;-75
2023/01/06 09:05:03;;;;;;;26.08;4.25;;;;;;;;;;4990652;28;20081;-74
2023/01/06 09:07:29;;;;;;;27.67;4.90;;;;;;;;;;5004347;28;20030;-75
2023/01/06 09:09:55;;;;;;;32.70;4.63;;;;;;;;;;4991076;28;20516;-75
2023/01/06 09:12:22;;;;;;;31.23;4.57;;;;;;;;;;5003037;28;20373;-75
2023/01/06 09:14:48;;;;;;;22.40;3.88;;;;;;;;;;4992794;28;20034;-75
2023/01/06 09:17:14;;;;;;;21.60;2.90;;;;;;;;;;4990638;28;20254;-75
2023/01/06 09:19:40;;;;;;;23.52;4.18;;;;;;;;;;4991087;28;20045;-76
2023/01/06 09:22:06;;;;;;;16.40;3.13;;;;;;;;;;4990691;28;20048;-74
2023/01/06 09:24:33;;;;;;;17.40;2.72;;;;;;;;;;4993581;28;20411;-73
2023/01/06 09:26:59;;;;;;;17.73;3.67;;;;;;;;;;4971975;28;20038;-75
2023/01/06 09:29:25;;;;;;;22.60;3.13;;;;;;;;;;4956596;28;22004;-73
2023/01/06 09:31:51;;;;;;;21.48;2.53;;;;;;;;;;5002231;28;20489;-75
2023/01/06 09:34:17;;;;;;;14.32;1.92;;;;;;;;;;5009567;28;20077;-74
2023/01/06 09:36:43;;;;;;;12.85;2.47;;;;;;;;;;5001009;28;20038;-74
2023/01/06 09:39:09;;;;;;;15.88;2.40;;;;;;;;;;4989303;28;20496;-74
2023/01/06 09:41:54;;;;;;;15.50;2.83;;;;;;;;;;4997813;28;20364;-74
2023/01/06 09:44:23;;;;;;;15.93;2.22;;;;;;;;;;4989749;28;20070;-75
2023/01/06 09:46:50;;;;;;;11.15;2.90;;;;;;;;;;4989405;28;20034;-74
2023/01/06 09:49:20;;;;;;;12.50;2.58;;;;;;;;;;4989608;28;20030;-75
2023/01/06 09:51:47;;;;;;;16.77;2.50;;;;;;;;;;4991137;28;20443;-73
2023/01/06 09:54:17;;;;;;;16.42;2.92;;;;;;;;;;4989174;28;20701;-74
2023/01/06 09:56:44;;;;;;;18.95;4.13;;;;;;;;;;4993728;28;20137;-75
2023/01/06 09:59:18;;;;;;;13.02;4.22;;;;;;;;;;5009758;28;20026;-74
2023/01/06 10:01:45;;;;;;;13.25;3.28;;;;;;;;;;5009966;28;20030;-74
2023/01/06 10:04:17;;;;;;;9.43;2.53;;;;;;;;;;5006428;28;20025;-74
2023/01/06 10:07:02;;;;;;;11.00;2.88;;;;;;;;;;5005670;28;20042;-74
2023/01/06 10:10:00;;;;;;;14.55;2.47;;;;;;;;;;4979010;28;20503;-74
2023/01/06 10:12:46;;;;;;;21.98;2.95;;;;;;;;;;4966399;28;20058;-73
2023/01/06 10:15:18;;;;;;;8.30;2.40;;;;;;;;;;4989007;28;20254;-74
2023/01/06 10:17:50;;;;;;;7.93;2.30;;;;;;;;;;4972475;28;20038;-74
2023/01/06 10:20:22;;;;;;;14.95;2.40;;;;;;;;;;4990270;28;20018;-73
2023/01/06 10:22:56;;;;;;;16.95;2.55;;;;;;;;;;4988200;28;20034;-72
2023/01/06 10:25:26;;;;;;;12.82;1.98;;;;;;;;;;4989459;28;20088;-74
2023/01/06 10:27:59;;;;;;;12.10;2.20;;;;;;;;;;4989830;28;20125;-75
2023/01/06 10:30:28;;;;;;;9.35;1.88;;;;;;;;;;5003086;28;20026;-74
2023/01/06 10:32:54;;;;;;;12.18;2.13;;;;;;;;;;4988634;28;20030;-73
2023/01/06 10:35:21;;;;;;;13.27;2.17;;;;;;;;;;4990057;28;20037;-73
2023/01/06 10:37:52;;;;;;;13.77;2.08;;;;;;;;;;4990001;28;20034;-74
2023/01/06 10:40:21;;;;;;;11.07;1.88;;;;;;;;;;4989085;28;20058;-73
2023/01/06 10:42:54;;;;;;;9.10;1.88;;;;;;;;;;4989648;28;20050;-73
2023/01/06 10:45:22;;;;;;;10.32;1.73;;;;;;;;;;4975739;28;20039;-73
2023/01/06 10:47:48;;;;;;;15.45;2.53;;;;;;;;;;5005445;28;20109;-73
2023/01/06 10:50:15;;;;;;;12.00;2.42;;;;;;;;;;4990094;28;20102;-73
2023/01/06 10:52:41;;;;;;;10.73;1.70;;;;;;;;;;5000410;28;20105;-74
2023/01/06 10:55:12;;;;;;;15.18;1.90;;;;;;;;;;4991366;28;20033;-74
2023/01/06 10:57:40;;;;;;;14.65;2.35;;;;;;;;;;4987623;28;20093;-73
2023/01/06 11:00:11;;;;;;;10.80;1.77;;;;;;;;;;5004263;28;20033;-73
2023/01/06 11:02:41;;;;;;;13.75;1.90;;;;;;;;;;4993717;28;20024;-74
2023/01/06 11:05:11;;;;;;;11.80;2.47;;;;;;;;;;4991746;28;20404;-73
2023/01/06 11:07:44;;;;;;;11.48;1.70;;;;;;;;;;4992917;28;20064;-72
2023/01/06 11:10:23;;;;;;;7.50;2.22;;;;;;;;;;5005706;28;20431;-75
2023/01/06 11:12:50;;;;;;;11.07;1.60;;;;;;;;;;4988197;28;20072;-74
2023/01/06 11:15:21;;;;;;;10.80;1.50;;;;;;;;;;4972363;28;20026;-74
2023/01/06 11:17:47;;;;;;;;;;;;;;;;;;4985282;28;20555;-72
2023/01/06 11:20:13;;;;;;;8.90;1.80;;;;;;;;;;4978831;28;20292;-74
2023/01/06 11:22:40;;;;;;;9.45;2.00;;;;;;;;;;4985251;28;20026;-74
2023/01/06 11:25:21;;;;;;;11.95;1.50;;;;;;;;;;4986053;28;20105;-74
2023/01/06 11:27:49;;;;;;;12.88;2.17;;;;;;;;;;4985700;28;20292;-74
2023/01/06 11:30:25;;;;;;;7.32;1.70;;;;;;;;;;4984764;28;20048;-74
2023/01/06 11:32:52;;;;;;;13.95;1.65;;;;;;;;;;4992699;28;21163;-74
2023/01/06 11:35:19;;;;;;;12.18;1.48;;;;;;;;;;4969825;28;20100;-74
2023/01/06 11:37:45;;;;;;;9.75;1.98;;;;;;;;;;4987895;28;20042;-74
2023/01/06 11:40:30;;;;;;;15.30;1.90;;;;;;;;;;4986802;28;20046;-74
2023/01/06 11:42:59;;;;;;;10.18;2.00;;;;;;;;;;4983916;28;20033;-74
2023/01/06 11:45:33;;;;;;;8.00;1.77;;;;;;;;;;4985476;28;20030;-74
2023/01/06 11:47:59;;;;;;;11.05;2.30;;;;;;;;;;4985254;28;20026;-74
2023/01/06 11:50:25;;;;;;;9.52;1.80;;;;;;;;;;4986276;28;20061;-72
2023/01/06 11:53:02;;;;;;;12.00;2.15;;;;;;;;;;4983030;28;20212;-74
2023/01/06 11:55:29;;;;;;;10.57;2.13;;;;;;;;;;5005481;28;20051;-72
2023/01/06 11:58:20;;;;;;;10.15;1.90;;;;;;;;;;4987328;28;20030;-72
2023/01/06 12:00:46;;;;;;;8.85;1.67;;;;;;;;;;4984731;28;20038;-74
2023/01/06 12:03:31;;;;;;;10.45;2.05;;;;;;;;;;4987561;28;20125;-75
2023/01/06 12:06:03;;;;;;;7.90;2.08;;;;;;;;;;4987646;28;20049;-73
2023/01/06 12:08:32;;;;;;;12.00;1.50;;;;;;;;;;4985184;28;20114;-73
2023/01/06 12:11:17;;;;;;;11.10;3.05;;;;;;;;;;4992424;28;20404;-74
2023/01/06 12:13:44;;;;;;;12.85;2.00;;;;;;;;;;4993166;28;20034;-73
2023/01/06 12:16:16;;;;;;;11.70;2.28;;;;;;;;;;4990241;28;20089;-74
2023/01/06 12:18:42;;;;;;;9.48;2.03;;;;;;;;;;4992116;28;20038;-74
2023/01/06 12:21:12;;;;;;;7.07;2.08;;;;;;;;;;4991231;28;20436;-74
2023/01/06 12:23:40;;;;;;;8.52;1.98;;;;;;;;;;4989386;28;20053;-74
2023/01/06 12:26:15;;;;;;;9.85;2.65;;;;;;;;;;4989954;28;20049;-72
2023/01/06 12:28:42;;;;;;;8.60;2.03;;;;;;;;;;4988508;28;20131;-73
2023/01/06 12:31:19;;;;;;;12.48;1.88;;;;;;;;;;4986884;28;20034;-73
2023/01/06 12:33:54;;;;;;;12.30;2.15;;;;;;;;;;4983460;28;20026;-73
2023/01/06 12:36:30;;;;;;;14.32;2.10;;;;;;;;;;4985807;28;20052;-73
2023/01/06 12:38:58;;;;;;;9.80;1.67;;;;;;;;;;4987306;28;20027;-73
2023/01/06 12:41:27;;;;;;;17.70;1.98;;;;;;;;;;4985680;28;20029;-74
2023/01/06 12:44:09;;;;;;;8.20;2.05;;;;;;;;;;4982870;28;20038;-72
2023/01/06 12:46:39;;;;;;;9.40;1.90;;;;;;;;;;4986522;28;20352;-72
2023/01/06 12:49:12;;;;;;;10.38;1.52;;;;;;;;;;4986517;28;20030;-71
2023/01/06 12:51:43;;;;;;;8.35;1.35;;;;;;;;;;4984852;28;20048;-72
2023/01/06 12:54:16;;;;;;;10.95;1.90;;;;;;;;;;4984774;28;20101;-73
2023/01/06 12:56:52;;;;;;;11.88;1.65;;;;;;;;;;4983788;28;20046;-73
2023/01/06 12:59:27;;;;;;;12.00;2.00;;;;;;;;;;4985683;28;20158;-73
2023/01/06 13:02:12;;;;;;;11.93;1.77;;;;;;;;;;4986059;28;20087;-72
2023/01/06 13:04:56;;;;;;;8.68;2.00;;;;;;;;;;4987811;28;20031;-73
2023/01/06 13:07:33;;;;;;;9.43;1.70;;;;;;;;;;4986442;28;21532;-73
2023/01/06 13:10:17;;;;;;;8.57;1.58;;;;;;;;;;4986903;28;20036;-73
2023/01/06 13:12:50;;;;;;;8.85;1.67;;;;;;;;;;4985733;28;20034;-72
2023/01/06 13:15:22;;;;;;;9.07;2.28;;;;;;;;;;4984166;28;20061;-72
2023/01/06 13:18:07;;;;;;;8.98;1.50;;;;;;;;;;4985308;28;20026;-73
2023/01/06 13:20:36;;;;;;;9.00;1.88;;;;;;;;;;4985382;28;20410;-73
2023/01/06 13:23:16;;;;;;;11.98;1.77;;;;;;;;;;4984549;28;20030;-74
2023/01/06 13:25:45;;;;;;;9.68;1.67;;;;;;;;;;4992264;28;20037;-73
2023/01/06 13:28:22;;;;;;;11.60;3.17;;;;;;;;;;4987682;28;20022;-73
2023/01/06 13:31:06;;;;;;;9.43;1.77;;;;;;;;;;4987416;28;20038;-73
2023/01/06 13:33:54;;;;;;;9.77;1.92;;;;;;;;;;4985215;28;20038;-73
2023/01/06 13:36:26;;;;;;;15.38;1.95;;;;;;;;;;4988305;28;20105;-72
2023/01/06 13:38:58;;;;;;;8.25;1.88;;;;;;;;;;4988357;28;20121;-72
2023/01/06 13:41:36;;;;;;;8.65;1.70;;;;;;;;;;4986738;28;20033;-72
2023/01/06 13:44:04;;;;;;;10.95;1.85;;;;;;;;;;4990892;28;20030;-72
2023/01/06 13:46:32;;;;;;;8.30;1.75;;;;;;;;;;4987489;28;20059;-73
2023/01/06 13:48:59;;;;;;;9.85;1.73;;;;;;;;;;4990451;28;20054;-73
2023/01/06 13:51:27;;;;;;;9.20;2.10;;;;;;;;;;4989012;28;20038;-73
2023/01/06 13:53:55;;;;;;;10.32;2.22;;;;;;;;;;4986397;28;20038;-74
2023/01/06 13:56:24;;;;;;;10.45;2.17;;;;;;;;;;4989383;28;20056;-73
2023/01/06 13:58:51;;;;;;;8.10;1.77;;;;;;;;;;4985015;28;20376;-72
2023/01/06 14:01:17;;;;;;;12.75;1.88;;;;;;;;;;4989960;28;20030;-73
2023/01/06 14:03:43;;;;;;;11.73;1.90;;;;;;;;;;4990811;28;20041;-71
2023/01/06 14:06:11;;;;;;;12.73;2.80;;;;;;;;;;4992550;28;20352;-72
2023/01/06 14:08:38;;;;;;;10.63;1.63;;;;;;;;;;4990100;28;20433;-73
2023/01/06 14:11:06;;;;;;;10.10;1.58;;;;;;;;;;4989306;28;20030;-72
2023/01/06 14:13:34;;;;;;;9.50;1.70;;;;;;;;;;4984150;28;20038;-72
2023/01/06 14:16:03;;;;;;;9.73;1.60;;;;;;;;;;4991828;28;20049;-72
2023/01/06 14:18:50;;;;;;;7.25;2.45;;;;;;;;;;5001192;28;20069;-72
2023/01/06 14:21:27;;;;;;;7.55;2.30;;;;;;;;;;4984401;28;20133;-74
2023/01/06 14:23:55;;;;;;;10.48;1.88;;;;;;;;;;4984261;28;20019;-72
2023/01/06 14:26:42;;;;;;;9.15;2.20;;;;;;;;;;4984353;28;20139;-72
2023/01/06 14:29:27;;;;;;;8.50;1.77;;;;;;;;;;4984605;28;20456;-72
2023/01/06 14:31:53;;;;;;;6.75;1.50;;;;;;;;;;4984219;28;20545;-73
2023/01/06 14:34:20;;;;;;;7.13;1.75;;;;;;;;;;4980782;28;20089;-74
2023/01/06 14:36:49;;;;;;;7.22;2.17;;;;;;;;;;4985998;28;20034;-72
2023/01/06 14:39:20;;;;;;;6.57;1.58;;;;;;;;;;4986283;28;20106;-72
2023/01/06 14:41:59;;;;;;;5.68;1.65;;;;;;;;;;4988311;28;20043;-72
2023/01/06 14:44:29;;;;;;;4.60;1.38;;;;;;;;;;4988368;28;20042;-72
2023/01/06 14:47:07;;;;;;;6.63;1.90;;;;;;;;;;4988561;28;20030;-72
2023/01/06 14:49:40;;;;;;;10.52;1.95;;;;;;;;;;4987258;28;20028;-72
2023/01/06 14:52:10;;;;;;;8.18;2.28;;;;;;;;;;4987112;28;20035;-73
2023/01/06 14:54:38;;;;;;;6.80;1.80;;;;;;;;;;4986132;28;20108;-72